Time;durP1;ratioP1;P1;durP2;ratioP2;P2;SDS_P1;SDS_P2;PMS_P1;PMS_P2;Temp;Humidity;BMP_temperature;BMP_pressure;BME280_temperature;BME280_humidity;BME280_pressure;Samples;Min_cycle;Max_cycle;Signal;HPM_P1;HPM_P2
2022/09/22 00:02:01;;;;;;;2.00;1.00;;;;;;;14.38;65.68;99069.50;6154427;23;20177;-89
2022/09/22 00:04:31;;;;;;;1.60;0.93;;;;;;;14.47;65.94;99071.47;6154832;23;20155;-90
2022/09/22 00:07:00;;;;;;;1.70;0.90;;;;;;;14.54;65.51;99078.03;6156324;23;20570;-89
2022/09/22 00:09:26;;;;;;;1.20;0.67;;;;;;;14.60;65.13;99077.59;6154972;23;20159;-89
2022/09/22 00:14:42;;;;;;;2.90;0.97;;;;;;;14.58;63.75;99079.50;6148121;23;20232;-89
2022/09/22 00:17:10;;;;;;;1.73;0.97;;;;;;;14.53;64.21;99065.78;6156202;23;20178;-89
2022/09/22 00:19:37;;;;;;;2.27;0.83;;;;;;;14.46;63.67;99070.66;6156060;23;20171;-89
2022/09/22 00:22:05;;;;;;;1.67;0.73;;;;;;;14.49;64.01;99075.69;6156356;23;20154;-89
2022/09/22 00:24:32;;;;;;;1.73;1.03;;;;;;;14.53;63.36;99073.69;6156374;23;20155;-90
2022/09/22 00:26:59;;;;;;;1.23;0.70;;;;;;;14.64;63.94;99064.09;6155059;23;20159;-90
2022/09/22 00:29:56;;;;;;;1.67;0.77;;;;;;;14.64;63.93;99060.63;6155520;23;20595;-90
2022/09/22 00:32:31;;;;;;;1.37;0.67;;;;;;;14.67;62.95;99053.31;6151689;23;20185;-90
2022/09/22 00:35:19;;;;;;;1.97;0.90;;;;;;;14.71;62.47;99043.38;6156441;23;20134;-91
2022/09/22 00:37:46;;;;;;;2.60;1.30;;;;;;;14.63;62.24;99045.72;6154990;23;20178;-90
2022/09/22 00:40:13;;;;;;;1.60;1.00;;;;;;;14.59;62.77;99044.28;6155967;23;20178;-91
2022/09/22 00:43:03;;;;;;;1.20;0.60;;;;;;;14.47;63.29;99047.75;6155496;23;20166;-91
2022/09/22 00:45:36;;;;;;;1.33;0.70;;;;;;;14.49;63.15;99038.78;6155729;23;20634;-92
2022/09/22 00:48:23;;;;;;;1.30;0.60;;;;;;;14.49;62.80;99037.97;6155289;23;20151;-92
2022/09/22 00:51:00;;;;;;;1.13;0.43;;;;;;;14.51;62.44;99050.09;6155377;23;20189;-90
2022/09/22 00:53:30;;;;;;;2.30;0.87;;;;;;;14.57;62.30;99046.19;6154805;23;20586;-90
2022/09/22 00:56:02;;;;;;;5.37;0.90;;;;;;;14.60;61.68;99040.66;6154403;23;20183;-90
2022/09/22 00:58:34;;;;;;;4.40;1.03;;;;;;;14.60;61.55;99046.78;6156450;23;20531;-90
2022/09/22 01:01:02;;;;;;;0.93;0.67;;;;;;;14.48;62.42;99047.66;6156208;23;20189;-90
2022/09/22 01:03:42;;;;;;;1.90;0.90;;;;;;;14.24;62.68;99048.47;6154768;23;20182;-91
2022/09/22 01:06:20;;;;;;;2.83;0.97;;;;;;;14.15;63.27;99044.66;6155451;23;20307;-91
2022/09/22 01:08:51;;;;;;;1.63;0.90;;;;;;;14.14;62.81;99043.84;6155437;23;20138;-91
2022/09/22 01:11:19;;;;;;;2.27;1.10;;;;;;;14.11;63.20;99043.19;6155350;23;20154;-91
2022/09/22 01:14:37;;;;;;;2.27;1.00;;;;;;;13.98;62.91;99037.91;6130016;23;20570;-91
2022/09/22 01:17:45;;;;;;;1.87;0.90;;;;;;;13.96;63.53;99033.69;6094489;23;20611;-91
2022/09/22 01:27:32;;;;;;;2.03;1.10;;;;;;;14.01;62.95;99043.00;5931687;24;20668;-92
2022/09/22 01:30:43;;;;;;;2.77;1.23;;;;;;;14.01;62.61;99037.72;5953440;24;20177;-91
2022/09/22 01:33:45;;;;;;;;;;;;;;;;;;;;;
2022/09/22 01:36:39;;;;;;;1.83;0.77;;;;;;;13.90;62.27;99034.97;6095111;23;20240;-93
2022/09/22 01:39:54;;;;;;;2.07;0.93;;;;;;;13.87;63.24;99024.63;6008602;23;20618;-92
2022/09/22 01:43:13;;;;;;;4.17;1.90;;;;;;;13.73;63.28;99022.06;5898179;24;20264;-90
2022/09/22 01:46:15;;;;;;;;;;;;;;;;;;;;;
2022/09/22 01:48:44;;;;;;;2.13;1.00;;;;;;;13.70;63.40;99030.19;5978246;24;20161;-89
2022/09/22 01:51:53;;;;;;;2.17;0.90;;;;;;;13.61;63.59;99030.78;5981560;24;20153;-92
2022/09/22 01:54:46;;;;;;;2.67;1.10;;;;;;;13.58;63.04;99031.00;5954187;24;20245;-91
2022/09/22 01:57:25;;;;;;;5.50;1.13;;;;;;;13.56;63.25;99030.25;5957371;24;20586;-90
2022/09/22 02:00:05;;;;;;;2.17;1.13;;;;;;;13.63;63.22;99035.94;5980835;24;20649;-90
2022/09/22 02:02:47;;;;;;;4.30;1.27;;;;;;;13.74;62.57;99029.03;5957967;24;20164;-91
2022/09/22 02:05:49;;;;;;;2.93;1.27;;;;;;;13.51;62.98;99032.34;5980718;24;20300;-92
2022/09/22 02:09:01;;;;;;;3.83;1.73;;;;;;;13.42;62.95;99028.53;5981272;24;20168;-91
2022/09/22 02:11:38;;;;;;;2.10;1.17;;;;;;;13.57;63.01;99024.88;5870722;24;20268;-91
2022/09/22 02:14:14;;;;;;;2.63;1.20;;;;;;;13.71;62.71;99023.97;5974070;24;20159;-92
2022/09/22 02:17:01;;;;;;;2.67;1.20;;;;;;;13.71;62.78;99023.13;6037063;23;20216;-91
2022/09/22 02:19:38;;;;;;;1.57;0.93;;;;;;;13.57;62.99;99026.69;6136163;23;20184;-93
2022/09/22 02:22:06;;;;;;;3.30;1.20;;;;;;;13.48;63.51;99022.03;6129843;23;20168;-91
2022/09/22 02:24:42;;;;;;;3.07;1.37;;;;;;;13.60;62.69;99029.09;6129721;23;20180;-90
2022/09/22 02:27:35;;;;;;;1.60;0.97;;;;;;;13.54;62.78;99032.16;6129878;23;20152;-92
2022/09/22 02:30:09;;;;;;;2.17;1.07;;;;;;;13.48;63.02;99029.91;6075714;23;20165;-90
2022/09/22 02:35:38;;;;;;;2.47;1.33;;;;;;;13.61;62.68;99032.56;6142927;23;20250;-91
2022/09/22 02:38:30;;;;;;;1.90;1.00;;;;;;;13.60;62.48;99031.72;6157184;23;20218;-90
2022/09/22 02:41:31;;;;;;;2.47;1.20;;;;;;;13.54;62.79;99032.16;6107302;23;20223;-91
2022/09/22 02:44:55;;;;;;;;;;;;;;;;;;;;;
2022/09/22 02:47:50;;;;;;;1.47;1.00;;;;;;;13.73;62.07;99029.16;6094355;23;20241;-91
2022/09/22 02:50:28;;;;;;;2.10;0.93;;;;;;;13.84;62.31;99030.09;6064898;23;20156;-92
2022/09/22 02:53:24;;;;;;;1.70;0.83;;;;;;;13.87;61.27;99035.16;6118783;23;20212;-90
2022/09/22 02:56:18;;;;;;;3.93;1.40;;;;;;;13.77;61.84;99038.50;6101634;23;20171;-92
2022/09/22 02:58:45;;;;;;;3.10;1.63;;;;;;;13.62;61.49;99040.41;6147515;23;20148;-89
2022/09/22 03:01:34;;;;;;;2.03;0.90;;;;;;;13.63;62.12;99035.94;6130883;23;20202;-91
2022/09/22 03:04:04;;;;;;;1.73;0.83;;;;;;;13.74;62.20;99039.56;6131492;23;20215;-91
2022/09/22 03:06:37;;;;;;;3.27;1.37;;;;;;;13.75;61.95;99045.69;6130669;23;20205;-92
2022/09/22 03:09:04;;;;;;;2.90;1.30;;;;;;;13.65;62.23;99044.63;6131473;23;20176;-90
2022/09/22 03:11:40;;;;;;;;;;;;;;;;;;;;;
2022/09/22 03:14:39;;;;;;;2.10;1.07;;;;;;;13.59;61.76;99043.22;6156748;23;20619;-89
2022/09/22 03:17:05;;;;;;;1.40;0.80;;;;;;;13.53;62.44;99039.22;6157021;23;20224;-89
2022/09/22 03:19:41;;;;;;;2.63;1.37;;;;;;;13.57;61.59;99037.22;6130709;23;20512;-91
2022/09/22 03:22:07;;;;;;;4.80;1.57;;;;;;;13.60;62.10;99044.06;6156626;23;20444;-90
2022/09/22 03:24:37;;;;;;;2.40;1.00;;;;;;;13.39;62.95;99041.88;6156625;23;20153;-90
2022/09/22 03:27:06;;;;;;;1.87;1.03;;;;;;;13.51;62.32;99037.63;6156248;23;20160;-91
2022/09/22 03:29:33;;;;;;;2.07;1.03;;;;;;;13.63;61.56;99043.84;6131442;23;20148;-90
2022/09/22 03:32:00;;;;;;;1.43;0.73;;;;;;;13.61;61.68;99043.13;6156096;23;20156;-90
2022/09/22 03:34:31;;;;;;;3.37;1.40;;;;;;;13.46;62.62;99048.47;6157089;23;20151;-92
2022/09/22 03:36:57;;;;;;;1.90;1.00;;;;;;;13.69;61.72;99053.97;6156274;23;20164;-89
2022/09/22 03:39:27;;;;;;;1.90;0.87;;;;;;;13.63;62.03;99047.34;6130652;23;20188;-90
2022/09/22 03:41:54;;;;;;;2.70;1.40;;;;;;;13.58;62.09;99049.44;6156350;23;20158;-90
2022/09/22 03:44:21;;;;;;;2.33;1.17;;;;;;;13.62;61.76;99055.34;6131306;23;20178;-90
2022/09/22 03:46:51;;;;;;;2.40;1.20;;;;;;;13.57;62.00;99053.03;6130564;23;20609;-91
2022/09/22 03:49:18;;;;;;;3.97;1.47;;;;;;;13.76;61.32;99045.56;6130214;23;20161;-90
2022/09/22 03:51:48;;;;;;;1.43;0.90;;;;;;;13.67;61.56;99053.25;6156388;23;20149;-91
2022/09/22 03:54:19;;;;;;;4.47;1.40;;;;;;;13.67;61.27;99054.09;6130971;23;20157;-89
2022/09/22 03:56:46;;;;;;;2.00;1.10;;;;;;;13.76;60.95;99055.25;6156526;23;20566;-90
2022/09/22 03:59:14;;;;;;;2.20;1.20;;;;;;;13.60;61.15;99059.88;6156940;23;20179;-91
2022/09/22 04:01:41;;;;;;;1.77;1.00;;;;;;;13.57;61.55;99058.28;6130536;23;20219;-90
2022/09/22 04:04:08;;;;;;;2.83;1.23;;;;;;;13.69;61.00;99059.25;6129804;23;20161;-92
2022/09/22 04:06:36;;;;;;;2.50;1.43;;;;;;;13.61;60.77;99065.03;6155769;23;20279;-89
2022/09/22 04:09:05;;;;;;;2.03;0.97;;;;;;;13.55;61.52;99066.28;6130586;23;20228;-91
2022/09/22 04:11:35;;;;;;;1.70;1.00;;;;;;;13.69;60.95;99062.75;6156436;23;20165;-90
2022/09/22 04:14:03;;;;;;;2.60;0.90;;;;;;;13.72;60.83;99064.31;6130723;23;20623;-90
2022/09/22 04:16:33;;;;;;;2.53;1.33;;;;;;;13.75;60.65;99067.63;6130118;23;20244;-91
2022/09/22 04:19:03;;;;;;;5.87;0.87;;;;;;;13.77;59.91;99070.97;6130673;23;20245;-90
2022/09/22 04:21:31;;;;;;;1.77;0.80;;;;;;;13.74;60.25;99070.31;6155715;23;20151;-90
2022/09/22 04:24:00;;;;;;;1.73;1.03;;;;;;;13.75;60.31;99066.75;6155773;23;20149;-89
2022/09/22 04:26:27;;;;;;;2.30;0.70;;;;;;;13.66;60.08;99065.56;6156206;23;20160;-89
2022/09/22 04:28:57;;;;;;;1.93;0.70;;;;;;;13.68;60.63;99073.38;6156763;23;20153;-90
2022/09/22 04:31:24;;;;;;;1.63;1.03;;;;;;;13.69;60.52;99068.00;6156349;23;20182;-89
2022/09/22 04:33:51;;;;;;;1.77;0.97;;;;;;;13.80;60.47;99069.94;6156219;23;20150;-91
2022/09/22 04:36:18;;;;;;;2.43;1.30;;;;;;;13.71;60.60;99071.38;6129788;23;20158;-91
2022/09/22 04:38:45;;;;;;;3.07;1.23;;;;;;;13.79;60.45;99063.81;6130186;23;20455;-90
2022/09/22 04:41:12;;;;;;;1.97;0.90;;;;;;;13.77;60.52;99067.50;6155795;23;20244;-90
2022/09/22 04:43:39;;;;;;;2.13;1.10;;;;;;;13.91;59.86;99068.28;6155990;23;20169;-90
2022/09/22 04:46:17;;;;;;;3.60;0.97;;;;;;;13.80;60.47;99062.03;6155810;23;20160;-91
2022/09/22 04:48:46;;;;;;;1.97;1.27;;;;;;;13.81;60.21;99056.63;6156025;23;20131;-91
2022/09/22 04:51:13;;;;;;;4.20;0.90;;;;;;;13.81;60.80;99059.28;6129902;23;20513;-92
2022/09/22 04:53:40;;;;;;;4.00;1.47;;;;;;;13.79;60.43;99061.19;6129888;23;20159;-89
2022/09/22 04:56:07;;;;;;;3.67;1.03;;;;;;;13.80;60.85;99049.69;6130109;23;20169;-92
2022/09/22 04:58:36;;;;;;;4.57;1.10;;;;;;;13.88;60.57;99057.94;6130534;23;20532;-91
2022/09/22 05:01:05;;;;;;;1.40;0.80;;;;;;;13.82;60.43;99050.44;6130540;23;20178;-90
2022/09/22 05:03:37;;;;;;;1.80;0.90;;;;;;;13.94;60.53;99052.22;6156063;23;20155;-90
2022/09/22 05:06:05;;;;;;;2.33;1.17;;;;;;;13.95;60.50;99053.09;6129524;23;20202;-90
2022/09/22 05:08:38;;;;;;;2.57;1.60;;;;;;;13.86;60.39;99057.19;6155022;23;20155;-91
2022/09/22 05:11:08;;;;;;;3.60;1.40;;;;;;;14.08;60.44;99064.47;6155628;23;20176;-89
2022/09/22 05:13:39;;;;;;;2.23;1.17;;;;;;;13.98;60.50;99059.00;6155828;23;20181;-90
2022/09/22 05:16:07;;;;;;;1.40;0.83;;;;;;;14.11;60.16;99065.13;6155839;23;20136;-90
2022/09/22 05:18:34;;;;;;;2.13;1.23;;;;;;;14.12;60.55;99061.53;6129804;23;20233;-89
2022/09/22 05:21:01;;;;;;;2.50;1.10;;;;;;;14.08;60.80;99060.06;6129005;23;20245;-90
2022/09/22 05:23:38;;;;;;;1.93;1.03;;;;;;;13.96;61.07;99065.31;6154851;23;20237;-90
2022/09/22 05:26:05;;;;;;;2.87;1.47;;;;;;;14.02;61.27;99071.00;6129619;23;20150;-90
2022/09/22 05:28:32;;;;;;;2.97;1.20;;;;;;;14.27;59.75;99071.97;6155367;23;20224;-90
2022/09/22 05:30:59;;;;;;;2.77;1.30;;;;;;;14.44;59.95;99077.00;6129078;23;20151;-90
2022/09/22 05:33:26;;;;;;;3.03;1.40;;;;;;;14.47;59.14;99082.88;6155193;23;20173;-89
2022/09/22 05:35:53;;;;;;;4.10;1.67;;;;;;;14.43;60.02;99073.50;6155375;23;20155;-89
2022/09/22 05:38:20;;;;;;;2.80;1.20;;;;;;;14.60;59.88;99077.59;6154831;23;20158;-89
2022/09/22 05:40:47;;;;;;;1.60;1.10;;;;;;;14.82;59.14;99077.78;6155499;23;20171;-89
2022/09/22 05:43:15;;;;;;;2.83;1.50;;;;;;;14.87;58.96;99080.94;6155612;23;20558;-89
2022/09/22 05:45:44;;;;;;;2.40;1.47;;;;;;;14.99;58.36;99087.97;6155202;23;20138;-89
2022/09/22 05:48:11;;;;;;;2.73;1.27;;;;;;;15.14;58.52;99083.41;6155097;23;20164;-89
2022/09/22 05:50:39;;;;;;;3.10;1.10;;;;;;;15.11;57.89;99081.84;6130336;23;20262;-90
2022/09/22 05:53:09;;;;;;;2.63;1.03;;;;;;;15.18;57.70;99085.72;6153741;23;20160;-89
2022/09/22 05:55:37;;;;;;;2.23;1.17;;;;;;;15.01;58.34;99086.09;6154688;23;20213;-90
2022/09/22 05:58:10;;;;;;;3.93;1.50;;;;;;;15.17;57.70;99091.13;6153415;23;20159;-90
2022/09/22 06:00:39;;;;;;;2.23;1.30;;;;;;;15.42;57.94;99090.16;6154708;23;20171;-88
2022/09/22 06:03:07;;;;;;;2.63;1.40;;;;;;;15.49;57.73;99094.09;6153900;23;20155;-89
2022/09/22 06:05:33;;;;;;;3.27;1.73;;;;;;;15.78;57.14;99084.84;6155963;23;20169;-89
2022/09/22 06:08:02;;;;;;;2.93;1.40;;;;;;;15.57;56.29;99081.13;6156618;23;20143;-90
2022/09/22 06:10:36;;;;;;;3.33;1.43;;;;;;;15.69;56.19;99093.47;6156977;23;20159;-88
2022/09/22 06:13:10;;;;;;;4.43;2.37;;;;;;;15.80;55.99;99098.81;6157279;23;20147;-89
2022/09/22 06:15:38;;;;;;;2.60;1.60;;;;;;;16.04;55.81;99102.22;6130395;23;20246;-89
2022/09/22 06:18:07;;;;;;;2.10;1.00;;;;;;;16.15;55.28;99089.06;6157037;23;20158;-89
2022/09/22 06:20:34;;;;;;;2.07;1.27;;;;;;;16.51;54.51;99091.50;6157020;23;20179;-88
2022/09/22 06:23:01;;;;;;;3.07;1.47;;;;;;;16.79;53.87;99089.41;6156249;23;20223;-86
2022/09/22 06:25:31;;;;;;;2.60;1.30;;;;;;;16.90;53.00;99086.75;6156892;23;20163;-89
2022/09/22 06:28:00;;;;;;;2.87;1.10;;;;;;;17.24;52.34;99088.41;6157417;23;20151;-88
2022/09/22 06:30:30;;;;;;;2.40;1.17;;;;;;;17.18;51.89;99083.59;6130870;23;20221;-89
2022/09/22 06:33:06;;;;;;;3.13;1.63;;;;;;;17.36;51.04;99084.75;6157350;23;20191;-92
2022/09/22 06:35:36;;;;;;;3.20;1.20;;;;;;;17.59;50.95;99086.41;6156309;23;20284;-89
2022/09/22 06:38:05;;;;;;;1.47;0.90;;;;;;;17.72;50.47;99087.06;6131318;23;20488;-91
2022/09/22 06:40:40;;;;;;;2.70;0.80;;;;;;;17.82;50.13;99087.16;6131323;23;20245;-93
2022/09/22 06:43:21;;;;;;;2.07;1.00;;;;;;;18.02;48.92;99082.84;6156235;23;20134;-89
2022/09/22 06:45:58;;;;;;;3.23;1.53;;;;;;;18.15;48.97;99088.81;6156486;23;20135;-88
2022/09/22 06:48:25;;;;;;;1.93;1.20;;;;;;;18.34;48.44;99088.94;6155682;23;20502;-89
2022/09/22 06:50:52;;;;;;;2.47;1.10;;;;;;;18.54;47.94;99084.59;6155891;23;20147;-89
2022/09/22 06:53:23;;;;;;;1.87;1.07;;;;;;;18.86;47.03;99074.69;6154150;23;20225;-90
2022/09/22 06:55:50;;;;;;;2.77;1.10;;;;;;;18.95;46.79;99082.69;6128944;23;20205;-89
2022/09/22 06:58:17;;;;;;;2.90;1.60;;;;;;;19.19;46.21;99086.81;6155037;23;20162;-88
2022/09/22 07:00:43;;;;;;;1.50;0.83;;;;;;;19.45;45.44;99080.91;6155436;23;20265;-90
2022/09/22 07:03:19;;;;;;;1.17;0.80;;;;;;;19.51;45.17;99095.47;6154828;23;20221;-91
2022/09/22 07:06:00;;;;;;;2.23;0.90;;;;;;;19.54;44.26;99076.59;6129188;23;20636;-89
2022/09/22 07:08:29;;;;;;;2.07;1.07;;;;;;;19.53;45.17;99085.53;6156801;23;20143;-89
2022/09/22 07:11:02;;;;;;;2.17;1.10;;;;;;;19.69;45.17;99088.50;6131145;23;20151;-91
2022/09/22 07:13:30;;;;;;;2.83;1.33;;;;;;;19.68;44.62;99083.31;6157289;23;20199;-88
2022/09/22 07:16:16;;;;;;;1.50;1.20;;;;;;;19.62;44.49;99084.72;6129957;23;20571;-88
2022/09/22 07:18:45;;;;;;;1.87;0.97;;;;;;;19.89;45.48;99087.50;6157159;23;20215;-90
2022/09/22 07:21:15;;;;;;;2.30;1.03;;;;;;;20.29;45.30;99083.84;6131226;23;20198;-89
2022/09/22 07:23:43;;;;;;;3.13;1.40;;;;;;;20.27;44.59;99089.34;6155649;23;20152;-89
2022/09/22 07:26:14;;;;;;;2.67;1.50;;;;;;;20.18;44.59;99106.94;6155835;23;20147;-90
2022/09/22 07:28:41;;;;;;;2.23;1.37;;;;;;;20.19;44.82;99100.66;6156752;23;20155;-90
2022/09/22 07:31:11;;;;;;;1.27;0.80;;;;;;;20.22;44.16;99104.88;6156692;23;20144;-89
2022/09/22 07:33:40;;;;;;;2.80;1.00;;;;;;;19.98;43.72;99099.97;6129907;23;20151;-91
2022/09/22 07:36:11;;;;;;;3.07;1.67;;;;;;;20.17;44.66;99109.78;6130401;23;20199;-90
2022/09/22 07:38:42;;;;;;;3.23;1.40;;;;;;;20.21;44.09;99103.16;6130716;23;20143;-89
2022/09/22 07:41:17;;;;;;;3.27;1.40;;;;;;;20.03;45.43;99105.72;6155793;23;20163;-89
2022/09/22 07:43:45;;;;;;;3.63;1.50;;;;;;;19.76;44.32;99100.25;6156514;23;20221;-89
2022/09/22 07:46:12;;;;;;;4.67;1.90;;;;;;;19.71;44.50;99110.44;6155870;23;20147;-90
2022/09/22 07:48:44;;;;;;;1.83;1.13;;;;;;;19.75;44.02;99113.69;6130424;23;20155;-87
2022/09/22 07:51:20;;;;;;;2.10;1.10;;;;;;;19.96;44.80;99109.06;6156474;23;20132;-88
2022/09/22 07:53:53;;;;;;;5.87;1.73;;;;;;;19.96;44.86;99112.59;6155750;23;20138;-88
2022/09/22 07:56:20;;;;;;;2.37;1.23;;;;;;;19.82;44.88;99113.00;6155738;23;20167;-90
2022/09/22 07:58:53;;;;;;;1.93;1.03;;;;;;;20.01;43.84;99112.16;6155684;23;20579;-90
2022/09/22 08:01:22;;;;;;;1.87;0.90;;;;;;;19.92;43.00;99120.97;6156103;23;20193;-88
2022/09/22 08:03:52;;;;;;;1.73;0.80;;;;;;;20.12;42.64;99118.19;6156106;23;20152;-87
2022/09/22 08:06:19;;;;;;;2.83;1.10;;;;;;;20.18;43.11;99114.94;6156006;23;20195;-89
2022/09/22 08:08:51;;;;;;;1.70;1.00;;;;;;;20.36;43.62;99109.75;6155590;23;20163;-89
2022/09/22 08:11:19;;;;;;;1.77;0.90;;;;;;;20.60;42.91;99109.28;6156028;23;20140;-90
2022/09/22 08:13:58;;;;;;;2.27;1.03;;;;;;;20.81;40.24;99113.44;6155628;23;20577;-90
2022/09/22 08:16:27;;;;;;;3.97;1.30;;;;;;;20.62;39.05;99118.00;6156391;23;20134;-90
2022/09/22 08:18:55;;;;;;;3.67;0.87;;;;;;;20.83;39.47;99116.78;6155975;23;20161;-88
2022/09/22 08:21:27;;;;;;;1.90;0.83;;;;;;;21.15;39.37;99107.56;6130443;23;20379;-91
2022/09/22 08:23:57;;;;;;;1.20;0.60;;;;;;;21.17;37.54;99102.94;6155626;23;20146;-90
2022/09/22 08:26:24;;;;;;;1.23;0.63;;;;;;;21.25;39.21;99101.19;6155396;23;20142;-91
2022/09/22 08:28:52;;;;;;;2.67;1.23;;;;;;;21.57;38.98;99099.88;6156429;23;20185;-89
2022/09/22 08:31:23;;;;;;;0.70;0.50;;;;;;;21.71;36.99;99092.22;6130930;23;20163;-89
2022/09/22 08:33:51;;;;;;;0.83;0.50;;;;;;;21.73;37.21;99105.38;6155654;23;20166;-90
2022/09/22 08:36:18;;;;;;;1.40;0.50;;;;;;;21.90;37.70;99100.13;6156618;23;20481;-89
2022/09/22 08:38:49;;;;;;;2.07;0.70;;;;;;;21.96;36.83;99095.97;6155913;23;20491;-92
2022/09/22 08:41:39;;;;;;;2.80;0.60;;;;;;;21.95;36.20;99105.00;6155990;23;20174;-90
2022/09/22 08:44:27;;;;;;;0.80;0.40;;;;;;;22.09;37.06;99093.75;6130160;23;20169;-90
2022/09/22 08:47:11;;;;;;;1.23;0.70;;;;;;;22.06;36.49;99094.09;6106255;23;20163;-90
2022/09/22 08:52:43;;;;;;;1.77;0.60;;;;;;;22.48;35.94;99084.38;6155024;23;20198;-91
2022/09/22 08:55:29;;;;;;;0.60;0.30;;;;;;;22.60;34.54;99083.13;6156387;23;20135;-91
2022/09/22 08:58:36;;;;;;;1.03;0.37;;;;;;;22.67;35.44;99066.50;6130364;23;20158;-91
2022/09/22 09:01:29;;;;;;;0.90;0.40;;;;;;;22.64;37.28;99073.81;6156658;23;20669;-91
2022/09/22 09:04:26;;;;;;;1.10;0.40;;;;;;;22.58;34.40;99070.91;6156533;23;20170;-90
2022/09/22 09:07:02;;;;;;;0.80;0.30;;;;;;;22.32;35.22;99076.25;6063803;23;20207;-91
2022/09/22 09:09:47;;;;;;;0.43;0.30;;;;;;;22.55;34.51;99073.91;6155024;23;20532;-90
2022/09/22 09:12:15;;;;;;;0.67;0.30;;;;;;;22.68;35.38;99066.31;6155168;23;20154;-90
2022/09/22 09:15:15;;;;;;;1.00;0.50;;;;;;;22.86;35.40;99052.88;6155286;23;20161;-89
2022/09/22 09:17:45;;;;;;;1.33;0.50;;;;;;;22.96;34.73;99053.59;6141971;23;20159;-90
2022/09/22 09:20:35;;;;;;;0.87;0.50;;;;;;;23.01;35.68;99054.78;6129728;23;20298;-89
2022/09/22 09:23:11;;;;;;;1.37;0.40;;;;;;;23.07;35.12;99055.97;6156536;23;20186;-89
2022/09/22 09:25:42;;;;;;;0.80;0.30;;;;;;;23.20;34.63;99046.50;6155517;23;20146;-88
2022/09/22 09:28:41;;;;;;;1.37;0.30;;;;;;;23.38;33.94;99054.44;6155151;23;20151;-89
2022/09/22 09:31:17;;;;;;;1.10;0.40;;;;;;;23.41;34.63;99035.38;6155784;23;20139;-89
2022/09/22 09:33:45;;;;;;;0.80;0.43;;;;;;;23.89;34.08;99042.66;6155242;23;20159;-90
2022/09/22 09:36:16;;;;;;;1.93;0.30;;;;;;;24.10;33.22;99058.25;6155312;23;20151;-88
2022/09/22 09:38:48;;;;;;;0.80;0.30;;;;;;;23.98;32.27;99051.53;6155717;23;20139;-91
2022/09/22 09:41:26;;;;;;;0.50;0.33;;;;;;;24.02;31.95;99048.34;6155684;23;20167;-90
2022/09/22 09:43:53;;;;;;;1.33;0.63;;;;;;;24.13;32.59;99036.47;6155865;23;20150;-89
2022/09/22 09:47:04;;;;;;;1.07;0.40;;;;;;;24.52;32.97;99036.59;6129781;23;20151;-90
2022/09/22 09:49:30;;;;;;;0.83;0.47;;;;;;;24.48;31.50;99036.06;6066035;23;20164;-89
2022/09/22 09:51:59;;;;;;;0.77;0.40;;;;;;;24.17;32.83;99043.16;6066258;23;20157;-89
2022/09/22 09:54:26;;;;;;;0.70;0.20;;;;;;;24.01;32.21;99045.81;6089493;23;20204;-89
2022/09/22 09:57:00;;;;;;;0.70;0.40;;;;;;;23.90;32.94;99038.94;6156166;23;20162;-89
2022/09/22 10:02:14;;;;;;;0.40;0.20;;;;;;;23.93;33.58;99043.13;6155129;23;20150;-88
2022/09/22 10:04:40;;;;;;;0.70;0.50;;;;;;;23.98;32.97;99046.16;6155397;23;20182;-88
2022/09/22 10:07:15;;;;;;;1.50;0.50;;;;;;;23.98;32.78;99046.16;6155729;23;20163;-88
2022/09/22 10:09:42;;;;;;;0.77;0.33;;;;;;;23.95;32.39;99049.19;6155353;23;20150;-89
2022/09/22 10:12:28;;;;;;;1.17;0.30;;;;;;;23.83;32.41;99037.94;6155353;23;20210;-90
2022/09/22 10:14:56;;;;;;;0.50;0.30;;;;;;;24.07;31.90;99037.97;6129548;23;20583;-90
2022/09/22 10:17:26;;;;;;;0.80;0.40;;;;;;;24.13;32.04;99034.66;6155729;23;20230;-90
2022/09/22 10:19:52;;;;;;;0.83;0.43;;;;;;;24.07;32.96;99039.78;6129612;23;20193;-89
2022/09/22 10:22:27;;;;;;;0.73;0.30;;;;;;;24.03;33.38;99027.75;6155729;23;20151;-90
2022/09/22 10:25:03;;;;;;;1.73;0.70;;;;;;;24.19;31.92;99031.28;6155660;23;20143;-89
2022/09/22 10:27:30;;;;;;;1.53;0.40;;;;;;;24.08;32.84;99025.41;6129585;23;20138;-89
2022/09/22 10:30:22;;;;;;;1.83;0.40;;;;;;;24.22;32.78;99024.75;6155798;23;20147;-89
2022/09/22 10:33:11;;;;;;;0.50;0.30;;;;;;;24.33;32.89;99029.75;6155276;23;20234;-89
2022/09/22 10:35:38;;;;;;;1.40;0.60;;;;;;;24.09;32.75;99021.75;6155250;23;20161;-91
2022/09/22 10:38:12;;;;;;;1.07;0.40;;;;;;;24.53;32.29;99031.03;6155238;23;20167;-90
2022/09/22 10:40:42;;;;;;;2.73;0.63;;;;;;;24.70;31.29;99021.13;6155646;23;20186;-89
2022/09/22 10:43:28;;;;;;;0.63;0.37;;;;;;;24.47;31.23;99026.38;6129617;23;20218;-89
2022/09/22 10:46:21;;;;;;;0.60;0.30;;;;;;;24.71;31.00;99022.81;6155706;23;20138;-88
2022/09/22 10:49:08;;;;;;;0.93;0.50;;;;;;;24.84;31.81;99023.13;6155993;23;20142;-89
2022/09/22 10:52:08;;;;;;;2.17;0.67;;;;;;;24.93;30.59;99022.91;6072687;23;20165;-89
2022/09/22 10:54:51;;;;;;;3.13;1.47;;;;;;;24.61;30.87;99036.38;6157891;23;20135;-90
2022/09/22 10:57:22;;;;;;;1.00;0.50;;;;;;;24.66;31.24;99041.25;6157313;23;20135;-89
2022/09/22 11:00:06;;;;;;;1.00;0.40;;;;;;;24.90;29.38;99039.34;6157162;23;20170;-90
2022/09/22 11:02:54;;;;;;;0.60;0.30;;;;;;;24.58;28.23;99035.91;6157644;23;20534;-89
2022/09/22 11:12:16;;;;;;;0.50;0.27;;;;;;;24.65;29.77;99045.75;6156575;23;20146;-89
2022/09/22 11:15:09;;;;;;;0.43;0.20;;;;;;;24.64;29.24;99046.75;6157172;23;20563;-90
2022/09/22 11:17:52;;;;;;;1.37;0.40;;;;;;;24.66;30.20;99052.78;6157343;23;20132;-89
2022/09/22 11:20:43;;;;;;;4.73;0.40;;;;;;;24.17;33.42;99043.16;6157078;23;20600;-89
2022/09/22 11:23:35;;;;;;;0.83;0.43;;;;;;;23.96;34.11;99048.16;6157223;23;20136;-89
2022/09/22 11:26:46;;;;;;;0.70;0.30;;;;;;;24.17;32.39;99056.56;6157279;23;20147;-90
2022/09/22 11:29:35;;;;;;;0.57;0.30;;;;;;;24.11;31.03;99046.53;6092168;23;20160;-90
2022/09/22 11:32:06;;;;;;;0.87;0.30;;;;;;;24.34;31.82;99050.19;6096575;23;20141;-90
2022/09/22 11:34:46;;;;;;;0.67;0.37;;;;;;;24.49;30.37;99047.63;6134208;23;20218;-90
2022/09/22 11:37:30;;;;;;;0.73;0.27;;;;;;;24.13;29.79;99055.22;6157065;23;20147;-91
2022/09/22 11:40:53;;;;;;;0.63;0.30;;;;;;;23.78;29.91;99051.00;6156604;23;20163;-90
2022/09/22 11:43:45;;;;;;;0.57;0.10;;;;;;;24.15;29.68;99058.56;6064880;23;20566;-89
2022/09/22 11:46:25;;;;;;;0.50;0.10;;;;;;;24.45;30.10;99053.34;6067446;23;20631;-89
2022/09/22 11:49:34;;;;;;;0.20;0.10;;;;;;;24.43;28.70;99051.84;6140612;23;20164;-90
2022/09/22 11:52:22;;;;;;;0.33;0.10;;;;;;;24.30;29.54;99051.53;6157214;23;20139;-90
2022/09/22 11:55:14;;;;;;;0.00;0.00;;;;;;;24.05;29.90;99049.84;6156623;23;20271;-90
2022/09/22 11:57:45;;;;;;;1.17;0.30;;;;;;;23.98;30.92;99049.66;6156590;23;20139;-89
2022/09/22 12:00:16;;;;;;;0.73;0.20;;;;;;;23.90;30.36;99040.81;6156689;23;20167;-91
2022/09/22 12:03:07;;;;;;;0.10;0.10;;;;;;;23.86;30.69;99037.63;6156383;23;20218;-89
2022/09/22 12:05:42;;;;;;;0.30;0.10;;;;;;;23.67;31.05;99043.28;6156712;23;20214;-90
2022/09/22 12:08:15;;;;;;;0.70;0.20;;;;;;;23.74;31.12;99049.66;6130582;23;20197;-90
2022/09/22 12:10:48;;;;;;;0.20;0.10;;;;;;;23.79;31.46;99048.16;6156765;23;20143;-89
2022/09/22 12:13:19;;;;;;;0.40;0.10;;;;;;;23.64;31.18;99043.63;6156695;23;20139;-89
2022/09/22 12:15:45;;;;;;;0.57;0.20;;;;;;;23.60;31.55;99045.81;6156628;23;20139;-90
2022/09/22 12:18:22;;;;;;;3.37;0.50;;;;;;;23.67;31.53;99044.13;6156341;23;20487;-90
2022/09/22 12:20:54;;;;;;;0.93;0.20;;;;;;;23.69;31.51;99038.59;6130443;23;20258;-90
2022/09/22 12:23:37;;;;;;;0.40;0.20;;;;;;;23.57;31.56;99031.91;6156357;23;20162;-90
2022/09/22 12:26:12;;;;;;;0.20;0.10;;;;;;;23.71;30.92;99034.78;6130530;23;20473;-90
2022/09/22 12:28:44;;;;;;;0.77;0.20;;;;;;;23.88;30.24;99019.53;6156180;23;20141;-89
2022/09/22 12:31:14;;;;;;;1.37;0.30;;;;;;;24.23;30.18;99018.38;6156850;23;20145;-90
2022/09/22 12:34:01;;;;;;;0.40;0.20;;;;;;;24.36;29.64;99018.69;6156800;23;20559;-88
2022/09/22 12:36:30;;;;;;;0.50;0.20;;;;;;;24.36;29.10;99016.03;6156073;23;20140;-89
2022/09/22 12:39:19;;;;;;;0.10;0.10;;;;;;;24.32;29.31;99012.00;6130247;23;20154;-89
2022/09/22 12:41:48;;;;;;;0.50;0.30;;;;;;;24.27;29.30;99009.84;6156781;23;20167;-91
2022/09/22 12:44:19;;;;;;;0.90;0.50;;;;;;;24.29;29.00;99007.00;6156046;23;20186;-90
2022/09/22 12:46:46;;;;;;;0.90;0.30;;;;;;;24.42;29.28;99012.66;6156781;23;20135;-90